sensor_id;sensor_type;location;lat;lon;timestamp;pressure;altitude;pressure_sealevel;temperature;humidity
51359;BME280;37448;51.588;7.248;2022-09-01T00:00:16;101350.22;;;17.00;53.97
51359;BME280;37448;51.588;7.248;2022-09-01T00:02:51;101346.22;;;16.98;53.57
51359;BME280;37448;51.588;7.248;2022-09-01T00:05:21;101345.84;;;16.99;53.26
51359;BME280;37448;51.588;7.248;2022-09-01T00:07:52;101348.22;;;16.97;53.85
51359;BME280;37448;51.588;7.248;2022-09-01T00:10:22;101346.63;;;16.96;53.93
51359;BME280;37448;51.588;7.248;2022-09-01T00:12:53;101339.09;;;16.97;53.76
51359;BME280;37448;51.588;7.248;2022-09-01T00:15:24;101339.88;;;16.94;54.04
51359;BME280;37448;51.588;7.248;2022-09-01T00:17:54;101338.66;;;16.87;53.93
51359;BME280;37448;51.588;7.248;2022-09-01T00:20:25;101339.06;;;16.93;53.95
51359;BME280;37448;51.588;7.248;2022-09-01T00:22:55;101345.81;;;16.88;53.97
51359;BME280;37448;51.588;7.248;2022-09-01T00:25:27;101347.00;;;16.95;54.13
51359;BME280;37448;51.588;7.248;2022-09-01T00:27:57;101343.03;;;16.88;54.13
51359;BME280;37448;51.588;7.248;2022-09-01T00:30:29;101340.22;;;16.81;54.04
51359;BME280;37448;51.588;7.248;2022-09-01T00:33:00;101345.31;;;16.69;54.15
51359;BME280;37448;51.588;7.248;2022-09-01T00:35:31;101339.78;;;16.72;54.82
51359;BME280;37448;51.588;7.248;2022-09-01T00:38:01;101338.13;;;16.57;55.23
51359;BME280;37448;51.588;7.248;2022-09-01T00:40:32;101338.94;;;16.61;54.69
51359;BME280;37448;51.588;7.248;2022-09-01T00:43:23;101339.38;;;16.67;55.08
51359;BME280;37448;51.588;7.248;2022-09-01T00:45:53;101335.00;;;16.69;55.44
51359;BME280;37448;51.588;7.248;2022-09-01T00:48:23;101331.44;;;16.69;54.90
51359;BME280;37448;51.588;7.248;2022-09-01T00:50:54;101333.38;;;16.61;54.76
51359;BME280;37448;51.588;7.248;2022-09-01T00:53:25;101322.28;;;16.58;55.25
51359;BME280;37448;51.588;7.248;2022-09-01T00:55:55;101336.84;;;16.44;55.80
51359;BME280;37448;51.588;7.248;2022-09-01T00:58:26;101326.09;;;16.39;55.96
51359;BME280;37448;51.588;7.248;2022-09-01T01:00:57;101332.78;;;16.31;55.95
51359;BME280;37448;51.588;7.248;2022-09-01T01:03:28;101336.38;;;16.35;55.69
51359;BME280;37448;51.588;7.248;2022-09-01T01:06:02;101323.97;;;16.15;55.89
51359;BME280;37448;51.588;7.248;2022-09-01T01:08:36;101335.47;;;16.17;56.23
51359;BME280;37448;51.588;7.248;2022-09-01T01:11:11;101326.63;;;16.00;57.13
51359;BME280;37448;51.588;7.248;2022-09-01T01:13:48;101323.03;;;15.96;57.06
51359;BME280;37448;51.588;7.248;2022-09-01T01:16:22;101327.06;;;16.03;57.40
51359;BME280;37448;51.588;7.248;2022-09-01T01:18:53;101329.75;;;15.95;57.11
51359;BME280;37448;51.588;7.248;2022-09-01T01:21:30;101325.00;;;15.92;57.42
51359;BME280;37448;51.588;7.248;2022-09-01T01:24:39;101319.22;;;15.64;58.31
51359;BME280;37448;51.588;7.248;2022-09-01T01:27:11;101322.38;;;15.66;59.32
51359;BME280;37448;51.588;7.248;2022-09-01T01:29:42;101325.94;;;15.63;59.29
51359;BME280;37448;51.588;7.248;2022-09-01T01:32:13;101329.03;;;15.54;58.74
51359;BME280;37448;51.588;7.248;2022-09-01T01:34:44;101325.09;;;15.59;59.19
51359;BME280;37448;51.588;7.248;2022-09-01T01:37:14;101328.53;;;15.49;59.15
51359;BME280;37448;51.588;7.248;2022-09-01T01:39:45;101332.34;;;15.34;59.99
51359;BME280;37448;51.588;7.248;2022-09-01T01:42:17;101329.59;;;15.34;59.75
51359;BME280;37448;51.588;7.248;2022-09-01T01:44:48;101331.63;;;15.40;59.83
51359;BME280;37448;51.588;7.248;2022-09-01T01:47:19;101325.69;;;15.38;59.78
51359;BME280;37448;51.588;7.248;2022-09-01T01:49:49;101324.53;;;15.43;59.79
51359;BME280;37448;51.588;7.248;2022-09-01T01:52:21;101334.81;;;15.42;59.35
51359;BME280;37448;51.588;7.248;2022-09-01T01:54:53;101339.19;;;15.43;59.67
51359;BME280;37448;51.588;7.248;2022-09-01T01:57:24;101339.56;;;15.42;59.77
51359;BME280;37448;51.588;7.248;2022-09-01T02:00:03;101341.88;;;15.36;59.74
51359;BME280;37448;51.588;7.248;2022-09-01T02:02:33;101343.03;;;15.32;60.54
51359;BME280;37448;51.588;7.248;2022-09-01T02:05:04;101345.81;;;15.32;60.16
51359;BME280;37448;51.588;7.248;2022-09-01T02:07:35;101345.41;;;15.33;60.20
51359;BME280;37448;51.588;7.248;2022-09-01T02:10:07;101347.31;;;15.26;60.32
51359;BME280;37448;51.588;7.248;2022-09-01T02:12:37;101344.09;;;15.24;60.77
51359;BME280;37448;51.588;7.248;2022-09-01T02:15:10;101353.19;;;15.21;61.23
51359;BME280;37448;51.588;7.248;2022-09-01T02:17:42;101355.56;;;15.22;60.92
51359;BME280;37448;51.588;7.248;2022-09-01T02:20:14;101345.63;;;15.18;61.32
51359;BME280;37448;51.588;7.248;2022-09-01T02:22:45;101347.97;;;15.16;61.44
51359;BME280;37448;51.588;7.248;2022-09-01T02:25:15;101343.63;;;15.15;61.40
51359;BME280;37448;51.588;7.248;2022-09-01T02:27:46;101344.81;;;15.14;61.32
51359;BME280;37448;51.588;7.248;2022-09-01T02:30:24;101343.16;;;15.09;61.72
51359;BME280;37448;51.588;7.248;2022-09-01T02:32:55;101339.56;;;15.05;61.98
51359;BME280;37448;51.588;7.248;2022-09-01T02:35:27;101334.44;;;15.07;61.57
51359;BME280;37448;51.588;7.248;2022-09-01T02:38:01;101343.88;;;15.02;61.87
51359;BME280;37448;51.588;7.248;2022-09-01T02:40:32;101340.22;;;14.95;62.36
51359;BME280;37448;51.588;7.248;2022-09-01T02:43:02;101344.50;;;14.89;62.65
51359;BME280;37448;51.588;7.248;2022-09-01T02:45:32;101335.09;;;14.93;62.46
51359;BME280;37448;51.588;7.248;2022-09-01T02:48:06;101344.56;;;14.92;62.85
51359;BME280;37448;51.588;7.248;2022-09-01T02:50:40;101346.09;;;14.90;62.71
51359;BME280;37448;51.588;7.248;2022-09-01T02:53:10;101341.31;;;14.87;63.17
51359;BME280;37448;51.588;7.248;2022-09-01T02:55:42;101345.31;;;14.89;62.81
51359;BME280;37448;51.588;7.248;2022-09-01T02:58:13;101335.66;;;14.76;63.68
51359;BME280;37448;51.588;7.248;2022-09-01T03:00:52;101338.63;;;14.64;64.05
51359;BME280;37448;51.588;7.248;2022-09-01T03:03:24;101346.53;;;14.62;64.21
51359;BME280;37448;51.588;7.248;2022-09-01T03:05:54;101341.75;;;14.59;64.46
51359;BME280;37448;51.588;7.248;2022-09-01T03:08:25;101338.91;;;14.55;64.13
51359;BME280;37448;51.588;7.248;2022-09-01T03:10:56;101336.22;;;14.59;64.32
51359;BME280;37448;51.588;7.248;2022-09-01T03:13:30;101339.72;;;14.56;65.10
51359;BME280;37448;51.588;7.248;2022-09-01T03:16:01;101340.47;;;14.53;64.94
51359;BME280;37448;51.588;7.248;2022-09-01T03:18:32;101337.66;;;14.49;65.05
51359;BME280;37448;51.588;7.248;2022-09-01T03:21:03;101346.81;;;14.53;64.72
51359;BME280;37448;51.588;7.248;2022-09-01T03:23:34;101350.38;;;14.54;64.73
51359;BME280;37448;51.588;7.248;2022-09-01T03:26:07;101347.19;;;14.52;65.06
51359;BME280;37448;51.588;7.248;2022-09-01T03:28:37;101347.88;;;14.45;65.14
51359;BME280;37448;51.588;7.248;2022-09-01T03:31:07;101354.22;;;14.46;65.54
51359;BME280;37448;51.588;7.248;2022-09-01T03:33:38;101342.31;;;14.42;66.00
51359;BME280;37448;51.588;7.248;2022-09-01T03:36:08;101346.19;;;14.37;65.64
51359;BME280;37448;51.588;7.248;2022-09-01T03:38:48;101350.84;;;14.33;65.72
51359;BME280;37448;51.588;7.248;2022-09-01T03:41:24;101350.25;;;14.21;66.46
51359;BME280;37448;51.588;7.248;2022-09-01T03:43:56;101346.47;;;14.06;66.89
51359;BME280;37448;51.588;7.248;2022-09-01T03:46:29;101343.28;;;14.04;67.41
51359;BME280;37448;51.588;7.248;2022-09-01T03:49:00;101345.66;;;14.05;66.86
51359;BME280;37448;51.588;7.248;2022-09-01T03:51:33;101346.53;;;14.09;66.80
51359;BME280;37448;51.588;7.248;2022-09-01T03:54:04;101347.28;;;14.06;66.97
51359;BME280;37448;51.588;7.248;2022-09-01T03:56:34;101341.63;;;13.99;67.32
51359;BME280;37448;51.588;7.248;2022-09-01T03:59:05;101348.63;;;13.93;67.50
51359;BME280;37448;51.588;7.248;2022-09-01T04:01:35;101347.13;;;13.96;67.39
51359;BME280;37448;51.588;7.248;2022-09-01T04:04:12;101343.97;;;13.97;67.38
51359;BME280;37448;51.588;7.248;2022-09-01T04:06:45;101336.16;;;14.03;67.25
51359;BME280;37448;51.588;7.248;2022-09-01T04:09:16;101327.44;;;14.01;67.10
51359;BME280;37448;51.588;7.248;2022-09-01T04:11:46;101332.97;;;14.01;67.32
51359;BME280;37448;51.588;7.248;2022-09-01T04:14:17;101332.25;;;14.04;67.56
51359;BME280;37448;51.588;7.248;2022-09-01T04:16:48;101337.69;;;14.00;67.63
51359;BME280;37448;51.588;7.248;2022-09-01T04:19:37;101340.09;;;14.02;67.56
51359;BME280;37448;51.588;7.248;2022-09-01T04:22:08;101340.78;;;13.95;68.01
51359;BME280;37448;51.588;7.248;2022-09-01T04:24:42;101346.31;;;13.95;68.04
51359;BME280;37448;51.588;7.248;2022-09-01T04:27:15;101340.44;;;14.00;67.63
51359;BME280;37448;51.588;7.248;2022-09-01T04:29:47;101354.22;;;13.97;68.29
51359;BME280;37448;51.588;7.248;2022-09-01T04:32:17;101339.19;;;13.94;68.07
51359;BME280;37448;51.588;7.248;2022-09-01T04:34:50;101334.81;;;13.93;68.00
51359;BME280;37448;51.588;7.248;2022-09-01T04:37:21;101334.66;;;13.83;68.56
51359;BME280;37448;51.588;7.248;2022-09-01T04:39:53;101343.31;;;13.81;68.19
51359;BME280;37448;51.588;7.248;2022-09-01T04:42:26;101333.19;;;13.66;69.16
51359;BME280;37448;51.588;7.248;2022-09-01T04:44:58;101334.91;;;13.74;68.56
51359;BME280;37448;51.588;7.248;2022-09-01T04:47:30;101336.13;;;13.77;68.82
51359;BME280;37448;51.588;7.248;2022-09-01T04:50:00;101338.09;;;13.76;69.04
51359;BME280;37448;51.588;7.248;2022-09-01T04:52:31;101333.66;;;13.71;69.90
51359;BME280;37448;51.588;7.248;2022-09-01T04:55:01;101339.25;;;13.75;68.83
51359;BME280;37448;51.588;7.248;2022-09-01T04:57:32;101334.97;;;13.78;69.69
51359;BME280;37448;51.588;7.248;2022-09-01T05:00:03;101342.00;;;13.75;69.26
51359;BME280;37448;51.588;7.248;2022-09-01T05:02:33;101343.66;;;13.80;69.47
51359;BME280;37448;51.588;7.248;2022-09-01T05:05:04;101343.31;;;13.81;69.54
51359;BME280;37448;51.588;7.248;2022-09-01T05:07:39;101348.53;;;13.86;68.96
51359;BME280;37448;51.588;7.248;2022-09-01T05:10:09;101344.59;;;13.87;69.58
51359;BME280;37448;51.588;7.248;2022-09-01T05:12:40;101341.91;;;13.91;68.92
51359;BME280;37448;51.588;7.248;2022-09-01T05:15:12;101337.53;;;13.90;69.04
51359;BME280;37448;51.588;7.248;2022-09-01T05:17:42;101341.50;;;13.92;69.24
51359;BME280;37448;51.588;7.248;2022-09-01T05:20:13;101335.13;;;13.88;69.21
51359;BME280;37448;51.588;7.248;2022-09-01T05:22:43;101334.88;;;13.97;69.37
51359;BME280;37448;51.588;7.248;2022-09-01T05:25:14;101337.59;;;13.93;68.86
51359;BME280;37448;51.588;7.248;2022-09-01T05:27:44;101344.28;;;13.92;69.54
51359;BME280;37448;51.588;7.248;2022-09-01T05:30:18;101344.59;;;13.87;69.63
51359;BME280;37448;51.588;7.248;2022-09-01T05:32:48;101343.09;;;13.93;69.33
51359;BME280;37448;51.588;7.248;2022-09-01T05:35:19;101341.16;;;13.94;69.37
51359;BME280;37448;51.588;7.248;2022-09-01T05:37:53;101343.22;;;14.00;69.01
51359;BME280;37448;51.588;7.248;2022-09-01T05:40:24;101336.97;;;14.03;68.96
51359;BME280;37448;51.588;7.248;2022-09-01T05:42:55;101352.38;;;14.04;68.72
51359;BME280;37448;51.588;7.248;2022-09-01T05:45:27;101344.19;;;14.11;68.36
51359;BME280;37448;51.588;7.248;2022-09-01T05:47:57;101348.47;;;14.09;68.66
51359;BME280;37448;51.588;7.248;2022-09-01T05:50:28;101349.41;;;14.16;68.23
51359;BME280;37448;51.588;7.248;2022-09-01T05:53:00;101349.88;;;14.22;68.77
51359;BME280;37448;51.588;7.248;2022-09-01T05:55:36;101346.75;;;14.24;68.21
51359;BME280;37448;51.588;7.248;2022-09-01T05:58:06;101350.34;;;14.28;68.24
51359;BME280;37448;51.588;7.248;2022-09-01T06:00:44;101352.47;;;14.64;67.12
51359;BME280;37448;51.588;7.248;2022-09-01T06:03:21;101358.59;;;16.38;62.35
51359;BME280;37448;51.588;7.248;2022-09-01T06:05:51;101363.50;;;17.88;55.94
51359;BME280;37448;51.588;7.248;2022-09-01T06:08:23;101365.47;;;18.44;53.42
51359;BME280;37448;51.588;7.248;2022-09-01T06:10:54;101369.81;;;18.66;52.19
51359;BME280;37448;51.588;7.248;2022-09-01T06:13:24;101374.66;;;19.42;50.28
51359;BME280;37448;51.588;7.248;2022-09-01T06:15:55;101366.75;;;19.92;50.09
51359;BME280;37448;51.588;7.248;2022-09-01T06:18:27;101376.56;;;20.11;49.02
51359;BME280;37448;51.588;7.248;2022-09-01T06:20:58;101373.47;;;20.80;45.99
51359;BME280;37448;51.588;7.248;2022-09-01T06:23:29;101373.16;;;21.09;44.20
51359;BME280;37448;51.588;7.248;2022-09-01T06:26:00;101380.00;;;21.04;45.86
51359;BME280;37448;51.588;7.248;2022-09-01T06:28:32;101386.00;;;21.63;43.10
51359;BME280;37448;51.588;7.248;2022-09-01T06:31:05;101382.69;;;22.42;42.89
51359;BME280;37448;51.588;7.248;2022-09-01T06:33:37;101385.72;;;22.74;39.94
51359;BME280;37448;51.588;7.248;2022-09-01T06:36:08;101386.94;;;22.73;39.94
51359;BME280;37448;51.588;7.248;2022-09-01T06:38:38;101386.41;;;23.17;41.13
51359;BME280;37448;51.588;7.248;2022-09-01T06:41:08;101392.91;;;23.14;39.08
51359;BME280;37448;51.588;7.248;2022-09-01T06:43:42;101391.94;;;23.41;38.09
51359;BME280;37448;51.588;7.248;2022-09-01T06:46:13;101395.19;;;23.91;37.39
51359;BME280;37448;51.588;7.248;2022-09-01T06:48:43;101398.47;;;24.22;37.61
51359;BME280;37448;51.588;7.248;2022-09-01T06:51:19;101394.19;;;23.98;37.37
51359;BME280;37448;51.588;7.248;2022-09-01T06:53:51;101396.34;;;24.10;36.85
51359;BME280;37448;51.588;7.248;2022-09-01T06:56:28;101399.34;;;23.31;38.73
51359;BME280;37448;51.588;7.248;2022-09-01T06:59:03;101397.09;;;23.78;37.51
51359;BME280;37448;51.588;7.248;2022-09-01T07:01:35;101396.56;;;24.32;37.21
51359;BME280;37448;51.588;7.248;2022-09-01T07:04:07;101394.50;;;25.35;35.30
51359;BME280;37448;51.588;7.248;2022-09-01T07:06:39;101399.09;;;24.87;36.16
51359;BME280;37448;51.588;7.248;2022-09-01T07:09:11;101398.16;;;25.07;34.64
51359;BME280;37448;51.588;7.248;2022-09-01T07:11:41;101398.00;;;24.24;36.39
51359;BME280;37448;51.588;7.248;2022-09-01T07:14:12;101399.47;;;24.89;35.29
51359;BME280;37448;51.588;7.248;2022-09-01T07:16:45;101408.91;;;25.37;35.21
51359;BME280;37448;51.588;7.248;2022-09-01T07:19:16;101393.06;;;24.11;36.46
51359;BME280;37448;51.588;7.248;2022-09-01T07:21:46;101398.56;;;23.50;38.18
51359;BME280;37448;51.588;7.248;2022-09-01T07:24:17;101392.69;;;25.16;34.58
51359;BME280;37448;51.588;7.248;2022-09-01T07:26:48;101402.59;;;24.91;34.90
51359;BME280;37448;51.588;7.248;2022-09-01T07:29:19;101396.34;;;25.79;34.12
51359;BME280;37448;51.588;7.248;2022-09-01T07:31:51;101398.38;;;25.66;33.67
51359;BME280;37448;51.588;7.248;2022-09-01T07:34:24;101400.09;;;24.52;35.47
51359;BME280;37448;51.588;7.248;2022-09-01T07:36:55;101398.59;;;25.59;34.13
51359;BME280;37448;51.588;7.248;2022-09-01T07:39:29;101401.53;;;25.56;33.34
51359;BME280;37448;51.588;7.248;2022-09-01T07:42:00;101402.50;;;26.12;33.11
51359;BME280;37448;51.588;7.248;2022-09-01T07:44:38;101395.94;;;25.14;34.02
51359;BME280;37448;51.588;7.248;2022-09-01T07:47:09;101396.31;;;26.30;32.90
51359;BME280;37448;51.588;7.248;2022-09-01T07:49:40;101394.31;;;26.05;32.89
51359;BME280;37448;51.588;7.248;2022-09-01T07:52:10;101383.09;;;25.67;33.32
51359;BME280;37448;51.588;7.248;2022-09-01T07:54:41;101399.28;;;27.04;31.16
51359;BME280;37448;51.588;7.248;2022-09-01T07:57:11;101394.03;;;26.38;32.17
51359;BME280;37448;51.588;7.248;2022-09-01T07:59:42;101396.78;;;26.50;32.01
51359;BME280;37448;51.588;7.248;2022-09-01T08:02:12;101397.50;;;27.50;29.85
51359;BME280;37448;51.588;7.248;2022-09-01T08:04:47;101401.59;;;26.28;31.90
51359;BME280;37448;51.588;7.248;2022-09-01T08:07:18;101405.56;;;26.87;30.71
51359;BME280;37448;51.588;7.248;2022-09-01T08:09:49;101394.41;;;26.02;32.60
51359;BME280;37448;51.588;7.248;2022-09-01T08:12:20;101395.34;;;25.07;34.16
51359;BME280;37448;51.588;7.248;2022-09-01T08:14:51;101393.19;;;25.65;33.37
51359;BME280;37448;51.588;7.248;2022-09-01T08:17:22;101389.44;;;24.60;34.98
51359;BME280;37448;51.588;7.248;2022-09-01T08:19:52;101400.63;;;25.97;32.45
51359;BME280;37448;51.588;7.248;2022-09-01T08:22:23;101393.47;;;26.30;32.47
51359;BME280;37448;51.588;7.248;2022-09-01T08:24:54;101410.97;;;26.59;31.58
51359;BME280;37448;51.588;7.248;2022-09-01T08:27:24;101398.25;;;25.82;33.29
51359;BME280;37448;51.588;7.248;2022-09-01T08:29:55;101402.72;;;26.30;31.82
51359;BME280;37448;51.588;7.248;2022-09-01T08:32:26;101406.13;;;27.25;30.44
51359;BME280;37448;51.588;7.248;2022-09-01T08:34:56;101410.97;;;25.49;32.16
51359;BME280;37448;51.588;7.248;2022-09-01T08:37:27;101411.75;;;26.94;30.91
51359;BME280;37448;51.588;7.248;2022-09-01T08:39:57;101405.84;;;27.94;29.17
51359;BME280;37448;51.588;7.248;2022-09-01T08:45:51;101400.94;;;28.43;27.69
51359;BME280;37448;51.588;7.248;2022-09-01T08:48:30;101401.06;;;28.12;27.57
51359;BME280;37448;51.588;7.248;2022-09-01T08:51:12;101403.06;;;27.63;28.08
51359;BME280;37448;51.588;7.248;2022-09-01T08:53:49;101396.53;;;27.44;28.95
51359;BME280;37448;51.588;7.248;2022-09-01T08:56:26;101398.75;;;28.38;27.30
51359;BME280;37448;51.588;7.248;2022-09-01T08:58:57;101393.78;;;27.01;29.54
51359;BME280;37448;51.588;7.248;2022-09-01T09:04:30;101401.91;;;26.99;28.98
51359;BME280;37448;51.588;7.248;2022-09-01T09:09:47;101392.38;;;27.27;29.01
51359;BME280;37448;51.588;7.248;2022-09-01T09:12:53;101389.59;;;27.36;28.79
51359;BME280;37448;51.588;7.248;2022-09-01T09:15:55;101385.84;;;27.39;29.29
51359;BME280;37448;51.588;7.248;2022-09-01T09:21:07;101385.75;;;27.83;27.87
51359;BME280;37448;51.588;7.248;2022-09-01T09:23:45;101382.28;;;27.79;27.38
51359;BME280;37448;51.588;7.248;2022-09-01T09:26:17;101371.81;;;28.06;26.84
51359;BME280;37448;51.588;7.248;2022-09-01T09:28:49;101377.22;;;27.74;27.34
51359;BME280;37448;51.588;7.248;2022-09-01T09:31:36;101375.50;;;28.34;26.59
51359;BME280;37448;51.588;7.248;2022-09-01T09:34:16;101368.59;;;28.17;27.07
51359;BME280;37448;51.588;7.248;2022-09-01T09:36:47;101364.44;;;28.00;27.16
51359;BME280;37448;51.588;7.248;2022-09-01T09:39:18;101359.97;;;27.41;27.97
51359;BME280;37448;51.588;7.248;2022-09-01T09:42:07;101360.13;;;27.46;28.21
51359;BME280;37448;51.588;7.248;2022-09-01T09:44:44;101360.06;;;27.59;28.16
51359;BME280;37448;51.588;7.248;2022-09-01T09:47:46;101366.13;;;27.88;28.08
51359;BME280;37448;51.588;7.248;2022-09-01T09:52:52;101364.03;;;27.09;29.16
51359;BME280;37448;51.588;7.248;2022-09-01T09:55:28;101367.06;;;26.93;29.26
51359;BME280;37448;51.588;7.248;2022-09-01T09:58:00;101354.38;;;27.19;29.29
51359;BME280;37448;51.588;7.248;2022-09-01T10:00:38;101346.22;;;27.92;28.56
51359;BME280;37448;51.588;7.248;2022-09-01T10:03:11;101345.91;;;27.99;27.63
51359;BME280;37448;51.588;7.248;2022-09-01T10:05:43;101344.34;;;28.07;27.60
51359;BME280;37448;51.588;7.248;2022-09-01T10:08:41;101337.41;;;27.90;27.74
51359;BME280;37448;51.588;7.248;2022-09-01T10:11:26;101342.66;;;28.82;27.28
51359;BME280;37448;51.588;7.248;2022-09-01T10:13:58;101340.28;;;29.50;25.37
51359;BME280;37448;51.588;7.248;2022-09-01T10:16:30;101323.94;;;28.94;26.79
51359;BME280;37448;51.588;7.248;2022-09-01T10:19:01;101332.13;;;29.43;25.18
51359;BME280;37448;51.588;7.248;2022-09-01T10:21:35;101322.41;;;28.75;26.69
51359;BME280;37448;51.588;7.248;2022-09-01T10:26:50;101329.69;;;27.81;26.81
51359;BME280;37448;51.588;7.248;2022-09-01T10:31:59;101318.31;;;28.67;25.67
51359;BME280;37448;51.588;7.248;2022-09-01T10:34:32;101327.13;;;28.50;27.01
51359;BME280;37448;51.588;7.248;2022-09-01T10:37:05;101323.91;;;27.94;27.02
51359;BME280;37448;51.588;7.248;2022-09-01T10:40:12;101322.09;;;28.36;26.83
51359;BME280;37448;51.588;7.248;2022-09-01T10:42:46;101313.66;;;29.15;25.77
51359;BME280;37448;51.588;7.248;2022-09-01T10:45:37;101313.28;;;28.61;26.43
51359;BME280;37448;51.588;7.248;2022-09-01T10:48:31;101306.00;;;28.97;26.29
51359;BME280;37448;51.588;7.248;2022-09-01T10:53:57;101313.72;;;28.87;26.93
51359;BME280;37448;51.588;7.248;2022-09-01T10:56:46;101306.84;;;28.79;26.91
51359;BME280;37448;51.588;7.248;2022-09-01T11:13:23;101290.69;;;28.71;28.09
51359;BME280;37448;51.588;7.248;2022-09-01T11:19:14;101301.88;;;29.07;27.51
51359;BME280;37448;51.588;7.248;2022-09-01T11:21:45;101291.41;;;29.40;26.81
51359;BME280;37448;51.588;7.248;2022-09-01T11:27:09;101282.50;;;28.73;27.13
51359;BME280;37448;51.588;7.248;2022-09-01T11:30:00;101287.47;;;28.87;27.13
51359;BME280;37448;51.588;7.248;2022-09-01T11:32:34;101284.66;;;28.87;27.17
51359;BME280;37448;51.588;7.248;2022-09-01T11:35:15;101288.63;;;28.80;27.13
51359;BME280;37448;51.588;7.248;2022-09-01T11:37:54;101286.56;;;28.63;28.13
51359;BME280;37448;51.588;7.248;2022-09-01T11:40:28;101283.13;;;29.61;26.63
51359;BME280;37448;51.588;7.248;2022-09-01T11:43:03;101291.50;;;29.13;27.33
51359;BME280;37448;51.588;7.248;2022-09-01T11:48:20;101287.53;;;28.23;28.44
51359;BME280;37448;51.588;7.248;2022-09-01T11:50:57;101268.50;;;27.20;30.01
51359;BME280;37448;51.588;7.248;2022-09-01T11:53:29;101275.72;;;27.30;30.27
51359;BME280;37448;51.588;7.248;2022-09-01T11:56:16;101269.63;;;28.72;28.28
51359;BME280;37448;51.588;7.248;2022-09-01T11:58:47;101274.72;;;29.42;26.92
51359;BME280;37448;51.588;7.248;2022-09-01T12:01:30;101274.28;;;29.59;26.43
51359;BME280;37448;51.588;7.248;2022-09-01T12:04:23;101277.53;;;29.42;27.02
51359;BME280;37448;51.588;7.248;2022-09-01T12:06:59;101266.88;;;29.28;26.96
51359;BME280;37448;51.588;7.248;2022-09-01T12:09:45;101260.50;;;28.77;27.87
51359;BME280;37448;51.588;7.248;2022-09-01T12:12:38;101269.31;;;29.12;26.92
51359;BME280;37448;51.588;7.248;2022-09-01T12:15:17;101257.69;;;28.58;28.06
51359;BME280;37448;51.588;7.248;2022-09-01T12:17:49;101253.78;;;28.47;27.89
51359;BME280;37448;51.588;7.248;2022-09-01T12:20:29;101251.72;;;27.93;28.97
51359;BME280;37448;51.588;7.248;2022-09-01T12:23:01;101242.41;;;28.65;27.35
51359;BME280;37448;51.588;7.248;2022-09-01T12:25:33;101248.28;;;29.03;26.66
51359;BME280;37448;51.588;7.248;2022-09-01T12:28:04;101248.41;;;28.58;27.56
51359;BME280;37448;51.588;7.248;2022-09-01T12:30:37;101251.56;;;27.78;27.93
51359;BME280;37448;51.588;7.248;2022-09-01T12:33:11;101245.44;;;27.80;27.96
51359;BME280;37448;51.588;7.248;2022-09-01T12:35:44;101242.75;;;27.76;28.35
51359;BME280;37448;51.588;7.248;2022-09-01T12:40:52;101232.88;;;27.13;28.60
51359;BME280;37448;51.588;7.248;2022-09-01T12:43:38;101238.84;;;28.01;27.85
51359;BME280;37448;51.588;7.248;2022-09-01T12:46:10;101231.94;;;27.93;27.79
51359;BME280;37448;51.588;7.248;2022-09-01T12:48:41;101223.13;;;28.54;26.97
51359;BME280;37448;51.588;7.248;2022-09-01T12:51:24;101227.25;;;27.90;27.34
51359;BME280;37448;51.588;7.248;2022-09-01T12:53:57;101222.34;;;28.45;26.43
51359;BME280;37448;51.588;7.248;2022-09-01T12:56:33;101227.53;;;28.01;26.79
51359;BME280;37448;51.588;7.248;2022-09-01T12:59:10;101225.38;;;27.96;27.08
51359;BME280;37448;51.588;7.248;2022-09-01T13:01:41;101219.09;;;27.15;28.11
51359;BME280;37448;51.588;7.248;2022-09-01T13:04:23;101217.88;;;25.99;29.48
51359;BME280;37448;51.588;7.248;2022-09-01T13:07:00;101215.59;;;26.50;29.11
51359;BME280;37448;51.588;7.248;2022-09-01T13:09:31;101205.09;;;27.12;27.77
51359;BME280;37448;51.588;7.248;2022-09-01T13:12:15;101210.13;;;27.57;26.98
51359;BME280;37448;51.588;7.248;2022-09-01T13:14:46;101198.84;;;27.75;27.06
51359;BME280;37448;51.588;7.248;2022-09-01T13:17:17;101201.91;;;27.41;27.49
51359;BME280;37448;51.588;7.248;2022-09-01T13:19:48;101204.47;;;27.57;27.37
51359;BME280;37448;51.588;7.248;2022-09-01T13:22:18;101200.31;;;27.40;27.49
51359;BME280;37448;51.588;7.248;2022-09-01T13:24:49;101198.69;;;26.80;27.38
51359;BME280;37448;51.588;7.248;2022-09-01T13:27:19;101195.28;;;27.35;27.46
51359;BME280;37448;51.588;7.248;2022-09-01T13:29:51;101192.06;;;27.63;26.36
51359;BME280;37448;51.588;7.248;2022-09-01T13:32:22;101194.28;;;27.96;26.37
51359;BME280;37448;51.588;7.248;2022-09-01T13:34:52;101192.50;;;28.44;25.41
51359;BME280;37448;51.588;7.248;2022-09-01T13:37:23;101198.97;;;27.71;26.26
51359;BME280;37448;51.588;7.248;2022-09-01T13:39:54;101180.47;;;28.25;25.88
51359;BME280;37448;51.588;7.248;2022-09-01T13:42:24;101182.31;;;28.37;25.75
51359;BME280;37448;51.588;7.248;2022-09-01T13:44:55;101186.00;;;27.16;27.09
51359;BME280;37448;51.588;7.248;2022-09-01T13:47:26;101172.59;;;28.38;25.10
51359;BME280;37448;51.588;7.248;2022-09-01T13:49:58;101179.06;;;28.30;25.77
51359;BME280;37448;51.588;7.248;2022-09-01T13:52:28;101176.22;;;28.02;25.14
51359;BME280;37448;51.588;7.248;2022-09-01T13:54:59;101169.81;;;27.65;25.95
51359;BME280;37448;51.588;7.248;2022-09-01T13:57:30;101174.19;;;27.85;26.21
51359;BME280;37448;51.588;7.248;2022-09-01T14:00:09;101171.69;;;27.78;26.15
51359;BME280;37448;51.588;7.248;2022-09-01T14:02:42;101171.31;;;27.39;26.55
51359;BME280;37448;51.588;7.248;2022-09-01T14:05:20;101162.13;;;27.08;26.77
51359;BME280;37448;51.588;7.248;2022-09-01T14:07:52;101162.75;;;26.94;27.15
51359;BME280;37448;51.588;7.248;2022-09-01T14:10:23;101167.69;;;26.50;27.95